Time;durP1;ratioP1;P1;durP2;ratioP2;P2;SDS_P1;SDS_P2;PMS_P1;PMS_P2;Temp;Humidity;BMP_temperature;BMP_pressure;BME280_temperature;BME280_humidity;BME280_pressure;Samples;Min_cycle;Max_cycle;Signal;HPM_P1;HPM_P2
2023/03/02 00:02:00;;;;;;;11.23;5.40;;;2.10;98.00;;;;;;5071269;28;20033;-50
2023/03/02 00:04:38;;;;;;;11.03;5.40;;;2.10;98.10;;;;;;5071666;28;20366;-54
2023/03/02 00:07:07;;;;;;;12.90;5.50;;;2.10;98.00;;;;;;5071490;28;20396;-52
2023/03/02 00:09:33;;;;;;;11.73;5.40;;;2.10;98.40;;;;;;5071409;28;20039;-54
2023/03/02 00:11:59;;;;;;;12.57;5.73;;;2.00;98.10;;;;;;5071588;28;20115;-53
2023/03/02 00:14:25;;;;;;;12.50;5.80;;;2.00;98.30;;;;;;5071190;28;20123;-51
2023/03/02 00:16:51;;;;;;;10.93;5.63;;;2.00;98.30;;;;;;5071448;28;20036;-50
2023/03/02 00:19:17;;;;;;;11.43;5.30;;;1.90;98.40;;;;;;5071210;28;20029;-54
2023/03/02 00:21:42;;;;;;;13.73;5.90;;;1.90;98.40;;;;;;5071182;28;20052;-53
2023/03/02 00:24:08;;;;;;;12.37;5.70;;;1.80;98.70;;;;;;5070765;28;20484;-50
2023/03/02 00:26:35;;;;;;;13.40;5.87;;;1.90;98.70;;;;;;5070929;28;20025;-50
2023/03/02 00:29:01;;;;;;;10.77;5.27;;;1.80;98.90;;;;;;5071349;28;20036;-50
2023/03/02 00:31:27;;;;;;;10.50;5.63;;;1.80;98.90;;;;;;5071117;28;20443;-52
2023/03/02 00:33:53;;;;;;;12.23;6.00;;;1.80;98.90;;;;;;5052837;28;20028;-51
2023/03/02 00:36:21;;;;;;;11.73;6.10;;;1.80;98.90;;;;;;5052930;28;20051;-51
2023/03/02 00:38:47;;;;;;;12.33;5.53;;;1.70;99.00;;;;;;5070892;28;20574;-53
2023/03/02 00:41:14;;;;;;;12.43;5.87;;;1.80;99.00;;;;;;5052952;28;20122;-52
2023/03/02 00:43:40;;;;;;;11.43;5.60;;;1.70;99.10;;;;;;5052999;28;20048;-51
2023/03/02 00:46:10;;;;;;;12.07;5.73;;;1.70;99.10;;;;;;5071023;28;20024;-52
2023/03/02 00:48:37;;;;;;;11.93;5.63;;;1.70;99.40;;;;;;5070200;28;20686;-51
2023/03/02 00:51:04;;;;;;;13.00;5.90;;;1.70;99.30;;;;;;5070864;28;20028;-52
2023/03/02 00:53:30;;;;;;;9.87;5.27;;;1.60;99.70;;;;;;5070718;28;20473;-53
2023/03/02 00:55:55;;;;;;;12.60;5.83;;;1.60;99.40;;;;;;5070930;28;20021;-49
2023/03/02 00:58:22;;;;;;;11.73;5.57;;;1.60;99.50;;;;;;5052403;28;20020;-52
2023/03/02 01:00:48;;;;;;;14.03;6.37;;;1.60;99.60;;;;;;5052639;28;20021;-50
2023/03/02 01:03:14;;;;;;;13.27;5.60;;;1.50;99.90;;;;;;5052780;28;20031;-50
2023/03/02 01:05:40;;;;;;;14.20;6.10;;;1.50;99.50;;;;;;5052529;28;20029;-53
2023/03/02 01:08:06;;;;;;;10.10;5.80;;;1.50;99.70;;;;;;5070503;28;20108;-52
2023/03/02 01:10:33;;;;;;;13.00;5.87;;;1.50;99.90;;;;;;5070663;28;20174;-48
2023/03/02 01:12:59;;;;;;;11.47;5.63;;;1.40;99.90;;;;;;5052413;28;20417;-52
2023/03/02 01:15:24;;;;;;;12.33;5.33;;;1.40;99.90;;;;;;5070319;28;20034;-50
2023/03/02 01:17:50;;;;;;;11.20;5.47;;;1.40;99.90;;;;;;5052450;28;20028;-55
2023/03/02 01:20:16;;;;;;;12.23;5.40;;;1.40;99.90;;;;;;5070501;28;20029;-55
2023/03/02 01:22:43;;;;;;;14.30;6.07;;;1.40;99.90;;;;;;5052646;28;20135;-55
2023/03/02 01:25:10;;;;;;;16.73;6.27;;;1.30;99.90;;;;;;5070569;28;20035;-55
2023/03/02 01:27:36;;;;;;;9.50;5.00;;;1.30;99.90;;;;;;5070527;28;20033;-50
2023/03/02 01:30:02;;;;;;;11.70;5.63;;;1.30;99.90;;;;;;5070525;28;20032;-54
2023/03/02 01:32:30;;;;;;;11.13;5.33;;;1.20;99.90;;;;;;5052594;28;20033;-50
2023/03/02 01:34:56;;;;;;;11.73;5.60;;;1.20;99.90;;;;;;5070444;28;20031;-60
2023/03/02 01:37:22;;;;;;;15.10;6.43;;;1.20;99.90;;;;;;5070371;28;20036;-54
2023/03/02 01:39:51;;;;;;;11.43;6.57;;;1.10;99.90;;;;;;5070523;28;20028;-52
2023/03/02 01:42:17;;;;;;;;;;;1.10;99.90;;;;;;5071195;28;20021;-54
2023/03/02 01:44:55;;;;;;;11.93;6.20;;;1.10;99.90;;;;;;5070500;28;20498;-49
2023/03/02 01:47:27;;;;;;;11.70;6.00;;;1.00;99.90;;;;;;5052220;28;20468;-54
2023/03/02 01:50:18;;;;;;;11.90;5.97;;;1.00;99.90;;;;;;5051372;28;20035;-52
2023/03/02 01:52:44;;;;;;;10.30;5.80;;;0.90;99.90;;;;;;5051674;28;20113;-51
2023/03/02 01:55:13;;;;;;;14.07;6.17;;;0.90;99.90;;;;;;5070157;28;20040;-54
2023/03/02 01:57:44;;;;;;;10.55;5.05;;;0.90;99.90;;;;;;5070041;28;20103;-52
2023/03/02 02:00:14;;;;;;;10.57;5.53;;;0.90;99.90;;;;;;5054754;28;20417;-55
2023/03/02 02:02:41;;;;;;;12.73;5.80;;;0.90;99.90;;;;;;5074409;28;20027;-54
2023/03/02 02:05:10;;;;;;;12.10;6.07;;;0.90;99.90;;;;;;5073967;28;20048;-52
2023/03/02 02:07:37;;;;;;;10.90;5.60;;;0.90;99.90;;;;;;5056035;28;20392;-56
2023/03/02 02:10:04;;;;;;;12.70;6.10;;;1.00;99.90;;;;;;5056076;28;20058;-51
2023/03/02 02:12:30;;;;;;;12.10;6.37;;;0.90;99.90;;;;;;5056026;28;20032;-54
2023/03/02 02:14:59;;;;;;;12.03;6.10;;;0.90;99.90;;;;;;5073937;28;20024;-53
2023/03/02 02:17:27;;;;;;;13.48;5.82;;;0.90;99.90;;;;;;5073759;28;20039;-53
2023/03/02 02:19:55;;;;;;;14.23;6.50;;;0.90;99.90;;;;;;5073785;28;20098;-53
2023/03/02 02:22:58;;;;;;;11.40;5.83;;;0.80;99.90;;;;;;5073860;28;20017;-54
2023/03/02 02:25:43;;;;;;;14.17;6.50;;;0.80;99.90;;;;;;5073756;28;20067;-54
2023/03/02 02:28:22;;;;;;;14.17;6.13;;;0.80;99.90;;;;;;5072964;28;20028;-55
2023/03/02 02:30:51;;;;;;;12.03;5.80;;;0.70;99.90;;;;;;5055774;28;20036;-51
2023/03/02 02:33:22;;;;;;;13.60;5.90;;;0.80;99.90;;;;;;5055823;28;20078;-54
2023/03/02 02:35:51;;;;;;;14.53;6.33;;;0.70;99.90;;;;;;5055853;28;20116;-55
2023/03/02 02:38:19;;;;;;;14.75;6.40;;;0.70;99.90;;;;;;5054994;28;20497;-54
2023/03/02 02:40:50;;;;;;;14.40;6.57;;;0.80;99.90;;;;;;5073471;28;20477;-53
2023/03/02 02:43:20;;;;;;;12.40;6.40;;;0.70;99.90;;;;;;5073596;28;20060;-51
2023/03/02 02:45:50;;;;;;;10.47;5.63;;;0.70;99.90;;;;;;5055567;28;20469;-55
2023/03/02 02:48:19;;;;;;;12.63;6.10;;;0.70;99.90;;;;;;5055362;28;20028;-52
2023/03/02 02:50:46;;;;;;;15.73;6.53;;;0.70;99.90;;;;;;5055336;28;20504;-51
2023/03/02 02:53:26;;;;;;;12.53;5.73;;;0.60;99.90;;;;;;5073331;28;20522;-53
2023/03/02 02:55:55;;;;;;;11.97;5.97;;;0.60;99.90;;;;;;5055313;28;20501;-52
2023/03/02 02:58:32;;;;;;;11.90;6.40;;;0.60;99.90;;;;;;5072995;28;20040;-52
2023/03/02 03:00:59;;;;;;;12.20;5.90;;;0.60;99.90;;;;;;5055067;28;20031;-54
2023/03/02 03:03:50;;;;;;;13.90;6.57;;;0.70;99.90;;;;;;5054989;28;20090;-53
2023/03/02 03:06:26;;;;;;;12.87;6.40;;;0.70;99.90;;;;;;5055232;28;20041;-54
2023/03/02 03:08:58;;;;;;;12.90;6.07;;;0.60;99.90;;;;;;5054955;28;20040;-55
2023/03/02 03:11:33;;;;;;;12.03;6.10;;;0.60;99.90;;;;;;5054213;28;20036;-56
2023/03/02 03:14:03;;;;;;;15.23;5.90;;;0.60;99.90;;;;;;5054790;28;20032;-51
2023/03/02 03:16:30;;;;;;;11.87;5.87;;;0.60;99.90;;;;;;5072646;28;20032;-53
2023/03/02 03:19:02;;;;;;;11.40;5.77;;;0.60;99.90;;;;;;5054655;28;20032;-56
2023/03/02 03:21:28;;;;;;;14.03;6.47;;;0.60;99.90;;;;;;5054746;28;20032;-54
2023/03/02 03:23:53;;;;;;;11.73;5.50;;;0.60;99.90;;;;;;5072629;28;20036;-54
2023/03/02 03:26:19;;;;;;;13.60;6.30;;;0.60;99.90;;;;;;5037888;28;20047;-54
2023/03/02 03:28:46;;;;;;;15.57;6.33;;;0.60;99.90;;;;;;5054483;28;20028;-54
2023/03/02 03:31:12;;;;;;;13.57;6.03;;;0.50;99.90;;;;;;5054326;28;20094;-54
2023/03/02 03:33:37;;;;;;;12.60;6.50;;;0.50;99.90;;;;;;5072057;28;20127;-54
2023/03/02 03:36:04;;;;;;;12.67;5.97;;;0.50;99.90;;;;;;5072564;28;20103;-53
2023/03/02 03:38:30;;;;;;;12.43;5.50;;;0.50;99.90;;;;;;5054008;28;20028;-53
2023/03/02 03:40:56;;;;;;;10.93;5.33;;;0.50;99.90;;;;;;5054070;28;20032;-55
2023/03/02 03:43:21;;;;;;;13.53;5.97;;;0.50;99.90;;;;;;5053936;28;20585;-54
2023/03/02 03:45:51;;;;;;;9.77;5.68;;;0.50;99.90;;;;;;5054174;28;20115;-53
2023/03/02 03:48:18;;;;;;;13.07;5.87;;;0.50;99.90;;;;;;5071647;28;20033;-54
2023/03/02 03:50:46;;;;;;;12.37;5.70;;;0.50;99.90;;;;;;5053988;28;20033;-54
2023/03/02 03:53:12;;;;;;;15.20;6.03;;;0.40;99.90;;;;;;5053565;28;20095;-54
2023/03/02 03:55:38;;;;;;;13.13;6.50;;;0.40;99.90;;;;;;5053738;28;20029;-55
2023/03/02 03:58:04;;;;;;;13.60;6.47;;;0.40;99.90;;;;;;5071611;28;20093;-54
2023/03/02 04:00:30;;;;;;;14.67;6.70;;;0.30;99.90;;;;;;5071836;28;20028;-53
2023/03/02 04:03:02;;;;;;;14.40;6.53;;;0.40;99.90;;;;;;5053772;28;20038;-53
2023/03/02 04:05:29;;;;;;;16.10;6.13;;;0.40;99.90;;;;;;5053681;28;20397;-52
2023/03/02 04:07:55;;;;;;;12.47;5.90;;;0.30;99.90;;;;;;5053431;28;20033;-51
2023/03/02 04:10:21;;;;;;;12.27;6.30;;;0.30;99.90;;;;;;5053151;28;20044;-50
2023/03/02 04:12:49;;;;;;;12.33;5.77;;;0.20;99.90;;;;;;5053622;28;20044;-53
2023/03/02 04:15:16;;;;;;;12.90;5.60;;;0.20;99.90;;;;;;5053367;28;20090;-51
2023/03/02 04:17:44;;;;;;;15.13;6.00;;;0.20;99.90;;;;;;5036636;28;20481;-53
2023/03/02 04:20:16;;;;;;;12.23;5.90;;;0.20;99.90;;;;;;5028333;28;20253;-55
2023/03/02 04:22:46;;;;;;;15.63;7.00;;;0.20;99.90;;;;;;5052406;28;20020;-54
2023/03/02 04:25:13;;;;;;;13.50;6.07;;;0.20;99.90;;;;;;5057419;28;20043;-52
2023/03/02 04:27:40;;;;;;;15.70;6.50;;;0.20;99.90;;;;;;5061243;28;20059;-50
2023/03/02 04:30:06;;;;;;;12.40;5.53;;;0.20;99.90;;;;;;5051640;28;20568;-52
2023/03/02 04:32:32;;;;;;;11.87;6.00;;;0.20;99.90;;;;;;5051913;28;20054;-51
2023/03/02 04:34:58;;;;;;;13.60;6.20;;;0.20;99.90;;;;;;5035361;28;20167;-53
2023/03/02 04:37:26;;;;;;;12.67;5.63;;;0.20;99.90;;;;;;5051476;28;20035;-51
2023/03/02 04:42:26;;;;;;;13.57;5.97;;;0.20;99.90;;;;;;5025307;28;20128;-54
2023/03/02 04:44:51;;;;;;;11.87;5.67;;;0.20;99.90;;;;;;5029425;28;20429;-49
2023/03/02 04:47:17;;;;;;;14.13;5.50;;;0.20;99.90;;;;;;5029033;28;20105;-47
2023/03/02 04:49:43;;;;;;;11.83;5.13;;;0.30;99.90;;;;;;5029606;28;20422;-51
2023/03/02 04:52:08;;;;;;;9.40;4.70;;;0.30;99.90;;;;;;5048380;28;20189;-49
2023/03/02 04:54:34;;;;;;;12.67;5.00;;;0.30;99.90;;;;;;5031011;28;20107;-50
2023/03/02 04:57:00;;;;;;;11.40;5.13;;;0.40;99.90;;;;;;5045812;28;20469;-48
2023/03/02 04:59:27;;;;;;;11.63;5.67;;;0.50;99.90;;;;;;5029282;28;20021;-51
2023/03/02 05:01:55;;;;;;;12.50;5.30;;;0.50;99.90;;;;;;5025928;28;20022;-48
2023/03/02 05:04:21;;;;;;;11.50;4.87;;;0.50;99.90;;;;;;5029361;28;20125;-51
2023/03/02 05:06:46;;;;;;;9.97;4.83;;;0.60;99.90;;;;;;5029075;28;20038;-49
2023/03/02 05:09:12;;;;;;;12.23;4.47;;;0.60;99.90;;;;;;5029088;28;20034;-49
2023/03/02 05:11:39;;;;;;;11.03;5.60;;;0.60;99.90;;;;;;5028432;28;20037;-51
2023/03/02 05:14:07;;;;;;;15.17;5.77;;;0.60;99.90;;;;;;5029113;28;20091;-53
2023/03/02 05:16:35;;;;;;;12.00;5.30;;;0.60;99.90;;;;;;5029180;28;20440;-52
2023/03/02 05:19:03;;;;;;;10.90;5.13;;;0.60;99.90;;;;;;5028658;28;20025;-51
2023/03/02 05:21:29;;;;;;;11.53;5.83;;;0.60;99.90;;;;;;5028547;28;20029;-54
2023/03/02 05:23:55;;;;;;;13.33;5.60;;;0.50;99.90;;;;;;5028747;28;20737;-53
2023/03/02 05:26:21;;;;;;;14.33;5.40;;;0.50;99.90;;;;;;5028148;28;20061;-51
2023/03/02 05:28:47;;;;;;;12.40;5.17;;;0.50;99.90;;;;;;5029077;28;20029;-53
2023/03/02 05:31:20;;;;;;;12.77;5.87;;;0.40;99.90;;;;;;5028936;28;20109;-53
2023/03/02 05:33:46;;;;;;;10.37;5.20;;;0.30;99.90;;;;;;5029153;28;20041;-54
2023/03/02 05:36:12;;;;;;;12.20;5.40;;;0.30;99.90;;;;;;5033393;28;20037;-50
2023/03/02 05:38:39;;;;;;;12.60;5.60;;;0.30;99.90;;;;;;5031352;28;20524;-50
2023/03/02 05:41:04;;;;;;;12.57;5.60;;;0.20;99.90;;;;;;5031472;28;20025;-50
2023/03/02 05:43:30;;;;;;;14.97;6.33;;;0.20;99.90;;;;;;5013146;28;20037;-52
2023/03/02 05:45:59;;;;;;;14.23;5.77;;;0.10;99.90;;;;;;5013201;28;20387;-52
2023/03/02 05:48:29;;;;;;;13.00;5.43;;;0.10;99.90;;;;;;5012985;28;20506;-50
2023/03/02 05:50:55;;;;;;;12.43;5.53;;;0.10;99.90;;;;;;5012994;28;20046;-49
2023/03/02 05:53:21;;;;;;;13.63;6.47;;;0.10;99.90;;;;;;5013056;28;20030;-46
2023/03/02 05:55:47;;;;;;;11.90;5.77;;;0.00;99.90;;;;;;5011905;28;20056;-54
2023/03/02 05:58:16;;;;;;;12.10;5.70;;;0.00;99.90;;;;;;5012532;28;20038;-48
2023/03/02 06:00:42;;;;;;;12.43;6.00;;;0.00;99.90;;;;;;5012818;28;20452;-49
2023/03/02 06:03:08;;;;;;;12.13;5.90;;;0.00;99.90;;;;;;5013149;28;20031;-51
2023/03/02 06:05:34;;;;;;;10.73;5.13;;;0.00;99.90;;;;;;5012600;28;20460;-51
2023/03/02 06:08:00;;;;;;;12.37;5.57;;;0.00;99.90;;;;;;5012801;28;20056;-51
2023/03/02 06:10:27;;;;;;;14.40;5.33;;;0.00;99.90;;;;;;5011603;28;20494;-48
2023/03/02 06:12:53;;;;;;;12.67;5.73;;;0.00;99.90;;;;;;5015611;28;20621;-52
2023/03/02 06:15:19;;;;;;;14.83;5.50;;;0.00;99.90;;;;;;5032133;28;20108;-53
2023/03/02 06:17:44;;;;;;;14.53;5.50;;;0.00;99.90;;;;;;5032594;28;20092;-47
2023/03/02 06:20:11;;;;;;;10.47;5.20;;;0.00;99.90;;;;;;5032413;28;20029;-51
2023/03/02 06:22:40;;;;;;;13.47;5.80;;;0.00;99.90;;;;;;5032657;28;20784;-48
2023/03/02 06:25:16;;;;;;;16.77;5.90;;;0.00;99.90;;;;;;5031895;28;20033;-50
2023/03/02 06:27:42;;;;;;;16.47;5.27;;;0.00;99.90;;;;;;5032151;28;20245;-48
2023/03/02 06:30:13;;;;;;;14.77;6.27;;;0.00;99.90;;;;;;5032117;28;20526;-50
2023/03/02 06:32:39;;;;;;;12.43;5.70;;;0.00;99.90;;;;;;5015156;28;20496;-50
2023/03/02 06:35:05;;;;;;;13.83;5.80;;;0.00;99.90;;;;;;5031857;28;20026;-51
2023/03/02 06:37:31;;;;;;;14.73;5.70;;;0.10;99.90;;;;;;5032102;28;20457;-48
2023/03/02 06:39:58;;;;;;;12.50;5.87;;;0.10;99.90;;;;;;5029651;28;20057;-45
2023/03/02 06:42:25;;;;;;;10.00;4.73;;;0.10;99.90;;;;;;5029245;28;20398;-44
2023/03/02 06:44:51;;;;;;;11.27;5.20;;;0.10;99.90;;;;;;5030631;28;20485;-52
2023/03/02 06:47:17;;;;;;;15.27;6.33;;;0.10;99.90;;;;;;5029979;28;20112;-52
2023/03/02 06:49:43;;;;;;;13.63;6.07;;;0.20;99.90;;;;;;5031350;28;20402;-53
2023/03/02 06:52:09;;;;;;;14.00;6.10;;;0.20;99.90;;;;;;5031275;28;20041;-53
2023/03/02 06:54:36;;;;;;;10.57;5.60;;;0.20;99.90;;;;;;5031289;28;20029;-55
2023/03/02 06:57:02;;;;;;;12.53;6.03;;;0.30;99.90;;;;;;5030222;28;20101;-53
2023/03/02 06:59:28;;;;;;;10.87;5.10;;;0.30;99.90;;;;;;5031261;28;20033;-53
2023/03/02 07:01:53;;;;;;;14.53;5.93;;;0.40;99.90;;;;;;5031183;28;20032;-49
2023/03/02 07:04:19;;;;;;;12.00;6.00;;;0.40;99.90;;;;;;5013278;28;20048;-50
2023/03/02 07:06:45;;;;;;;12.83;5.80;;;0.40;99.90;;;;;;5030774;28;20021;-51
2023/03/02 07:09:11;;;;;;;10.70;5.07;;;0.50;99.90;;;;;;5030920;28;20040;-48
2023/03/02 07:11:37;;;;;;;13.40;5.50;;;0.50;99.90;;;;;;5030572;28;20033;-52
2023/03/02 07:14:02;;;;;;;15.17;5.47;;;0.60;99.90;;;;;;5030969;28;20033;-51
2023/03/02 07:16:30;;;;;;;14.50;5.47;;;0.70;99.90;;;;;;5030562;28;20116;-49
2023/03/02 07:18:56;;;;;;;13.03;5.53;;;0.70;99.90;;;;;;5031043;28;20075;-52
2023/03/02 07:21:22;;;;;;;11.30;5.57;;;0.80;99.90;;;;;;5030810;28;20033;-50
2023/03/02 07:23:47;;;;;;;12.60;6.07;;;0.70;99.90;;;;;;5030542;28;20029;-52
2023/03/02 07:26:13;;;;;;;17.20;6.93;;;0.70;99.90;;;;;;5030387;28;20053;-52
2023/03/02 07:28:40;;;;;;;11.40;5.87;;;0.80;99.90;;;;;;5030358;28;20041;-50
2023/03/02 07:31:07;;;;;;;14.73;6.23;;;0.90;99.90;;;;;;5030853;28;20033;-49
2023/03/02 07:33:33;;;;;;;10.47;5.00;;;0.90;99.90;;;;;;5030592;28;20033;-53
2023/03/02 07:35:59;;;;;;;13.87;5.70;;;1.00;99.90;;;;;;5030436;28;20040;-50
2023/03/02 07:38:25;;;;;;;13.00;5.67;;;1.20;99.90;;;;;;5030235;28;20040;-53
2023/03/02 07:40:51;;;;;;;12.33;6.07;;;1.50;99.90;;;;;;5029268;28;20037;-53
2023/03/02 07:43:17;;;;;;;12.77;5.70;;;1.90;99.90;;;;;;5029840;28;20030;-52
2023/03/02 07:45:43;;;;;;;13.83;5.70;;;2.30;99.90;;;;;;4995713;28;20053;-48
2023/03/02 07:48:09;;;;;;;15.57;6.03;;;2.60;99.90;;;;;;5029556;28;20119;-48
2023/03/02 07:50:35;;;;;;;10.77;5.50;;;2.90;99.40;;;;;;5030081;28;20049;-48
2023/03/02 07:53:01;;;;;;;13.60;5.50;;;3.40;98.40;;;;;;5029300;28;20029;-48
2023/03/02 07:55:27;;;;;;;10.33;5.03;;;3.50;98.30;;;;;;5011102;28;20389;-52
2023/03/02 07:57:53;;;;;;;15.20;5.20;;;3.60;97.70;;;;;;5029644;28;20057;-53
2023/03/02 08:00:19;;;;;;;10.50;5.40;;;3.60;97.40;;;;;;5029921;28;20034;-49
2023/03/02 08:02:45;;;;;;;11.03;5.57;;;3.30;97.70;;;;;;5030218;28;20033;-52
2023/03/02 08:05:11;;;;;;;11.90;5.43;;;3.30;98.00;;;;;;5030257;28;20091;-51
2023/03/02 08:07:37;;;;;;;12.60;5.80;;;3.20;97.80;;;;;;5030025;28;20486;-48
2023/03/02 08:10:03;;;;;;;14.60;5.23;;;3.10;97.80;;;;;;5029808;28;20122;-49
2023/03/02 08:12:29;;;;;;;10.57;5.50;;;3.10;97.60;;;;;;5029459;28;20080;-50
2023/03/02 08:14:55;;;;;;;11.37;5.43;;;3.00;98.10;;;;;;5029512;28;20045;-52
2023/03/02 08:17:21;;;;;;;10.87;5.40;;;3.00;98.40;;;;;;5029661;28;20067;-50
2023/03/02 08:19:47;;;;;;;12.57;6.00;;;3.10;98.50;;;;;;5030144;28;20030;-51
2023/03/02 08:22:13;;;;;;;15.37;6.07;;;3.30;97.80;;;;;;5029753;28;20488;-48
2023/03/02 08:24:40;;;;;;;12.17;5.50;;;3.20;97.60;;;;;;5029205;28;20045;-51
2023/03/02 08:27:07;;;;;;;11.23;5.83;;;3.40;97.70;;;;;;5027977;28;20061;-54
2023/03/02 08:29:33;;;;;;;10.60;5.93;;;3.60;96.70;;;;;;5029603;28;20406;-50
2023/03/02 08:31:59;;;;;;;16.03;5.40;;;3.90;96.70;;;;;;5029653;28;20194;-54
2023/03/02 08:34:25;;;;;;;11.33;5.67;;;4.10;96.00;;;;;;5029362;28;20482;-53
2023/03/02 08:36:52;;;;;;;11.27;5.63;;;4.30;95.10;;;;;;5029249;28;20039;-52
2023/03/02 08:39:18;;;;;;;11.23;5.60;;;4.50;95.20;;;;;;5028863;28;20033;-53
2023/03/02 08:41:44;;;;;;;12.40;5.20;;;4.80;94.60;;;;;;5028390;28;20044;-54
2023/03/02 08:44:09;;;;;;;11.70;5.60;;;4.90;94.00;;;;;;5028939;28;20029;-50
2023/03/02 08:46:35;;;;;;;10.93;5.37;;;4.90;93.70;;;;;;5029185;28;20044;-54
2023/03/02 08:49:01;;;;;;;15.33;5.27;;;4.90;93.40;;;;;;5028806;28;20037;-51
2023/03/02 08:51:27;;;;;;;10.30;5.77;;;4.80;93.40;;;;;;5028701;28;20065;-52
2023/03/02 08:53:55;;;;;;;11.20;5.27;;;4.70;93.30;;;;;;5028808;28;20924;-50
2023/03/02 08:56:22;;;;;;;16.20;6.07;;;4.60;93.70;;;;;;5028150;28;20399;-51
2023/03/02 08:58:49;;;;;;;10.57;5.10;;;4.60;93.20;;;;;;5023884;28;20044;-53
2023/03/02 09:01:20;;;;;;;12.97;5.30;;;4.80;93.10;;;;;;5024903;28;20091;-52
2023/03/02 09:03:46;;;;;;;12.80;5.93;;;5.10;92.20;;;;;;5025518;28;20052;-55
2023/03/02 09:06:12;;;;;;;11.00;5.67;;;5.20;91.90;;;;;;5025593;28;20029;-52
2023/03/02 09:08:38;;;;;;;12.40;5.33;;;5.10;91.60;;;;;;5024291;28;20840;-49
2023/03/02 09:11:04;;;;;;;9.90;5.43;;;5.30;91.00;;;;;;5025002;28;20033;-52
2023/03/02 09:13:30;;;;;;;14.57;7.30;;;5.40;91.20;;;;;;5025992;28;20044;-52
2023/03/02 09:15:56;;;;;;;13.13;5.90;;;5.30;91.00;;;;;;5028872;28;20037;-51
2023/03/02 09:18:22;;;;;;;12.07;6.03;;;5.50;91.10;;;;;;5028677;28;20037;-55
2023/03/02 09:20:51;;;;;;;12.30;5.77;;;5.60;91.00;;;;;;5028331;28;20076;-51
2023/03/02 09:23:19;;;;;;;11.17;6.03;;;5.60;90.50;;;;;;5029091;28;20022;-53
2023/03/02 09:25:47;;;;;;;13.47;6.40;;;5.80;90.70;;;;;;5027107;28;20026;-54
2023/03/02 09:28:14;;;;;;;11.43;6.60;;;5.80;90.10;;;;;;5028720;28;20036;-55
2023/03/02 09:30:40;;;;;;;11.90;5.50;;;5.90;90.20;;;;;;5028781;28;20052;-54
2023/03/02 09:33:06;;;;;;;9.30;5.80;;;6.10;89.60;;;;;;5028708;28;20029;-49
2023/03/02 09:35:32;;;;;;;11.50;6.23;;;6.30;89.50;;;;;;5028467;28;20310;-53
2023/03/02 09:37:57;;;;;;;11.57;6.07;;;6.30;90.20;;;;;;5028439;28;20033;-53
2023/03/02 09:40:26;;;;;;;12.37;5.17;;;6.60;88.60;;;;;;5027486;28;20025;-49
2023/03/02 09:43:01;;;;;;;9.40;5.53;;;6.90;85.70;;;;;;5028973;28;20064;-52
2023/03/02 09:45:36;;;;;;;12.17;6.27;;;7.30;85.90;;;;;;5028447;28;20498;-49
2023/03/02 09:48:30;;;;;;;14.67;6.43;;;7.50;83.10;;;;;;5028444;28;20095;-52
2023/03/02 09:51:13;;;;;;;11.23;6.10;;;8.00;82.60;;;;;;5028247;28;20051;-52
2023/03/02 09:53:51;;;;;;;11.20;6.03;;;9.20;78.70;;;;;;5028254;28;20457;-51
2023/03/02 09:56:18;;;;;;;10.17;5.93;;;9.60;74.70;;;;;;5027692;28;20628;-50
2023/03/02 09:58:52;;;;;;;12.73;6.20;;;9.90;74.20;;;;;;5028120;28;20498;-50
2023/03/02 10:01:29;;;;;;;13.43;6.30;;;9.80;72.90;;;;;;5028085;28;20104;-50
2023/03/02 10:04:06;;;;;;;11.97;6.00;;;9.70;73.00;;;;;;5028399;28;20044;-50
2023/03/02 10:06:32;;;;;;;9.77;6.13;;;9.70;72.80;;;;;;5028109;28;20029;-51
2023/03/02 10:08:58;;;;;;;11.52;6.43;;;10.30;71.40;;;;;;5027774;28;20120;-52
2023/03/02 10:11:46;;;;;;;12.07;6.47;;;11.10;70.50;;;;;;5027457;28;20025;-51
2023/03/02 10:14:37;;;;;;;10.17;6.10;;;11.50;67.70;;;;;;5028268;28;20393;-51
2023/03/02 10:17:28;;;;;;;9.90;6.82;;;12.50;65.20;;;;;;5027847;28;20022;-51
2023/03/02 10:20:04;;;;;;;11.32;6.50;;;12.70;63.70;;;;;;5028783;28;20038;-51
2023/03/02 10:22:43;;;;;;;10.63;6.43;;;13.00;62.40;;;;;;5032069;28;20061;-54
2023/03/02 10:25:30;;;;;;;10.82;6.43;;;13.60;61.60;;;;;;5031477;28;20029;-52
2023/03/02 10:28:07;;;;;;;10.88;6.35;;;13.20;61.10;;;;;;5032018;28;20507;-52
2023/03/02 10:30:35;;;;;;;10.88;6.60;;;13.60;58.60;;;;;;5031724;28;20993;-53
2023/03/02 10:33:18;;;;;;;11.50;6.37;;;13.20;58.30;;;;;;5032541;28;20045;-53
2023/03/02 10:35:47;;;;;;;13.25;6.55;;;12.70;58.60;;;;;;5031981;28;20030;-52
2023/03/02 10:38:21;;;;;;;10.43;6.10;;;11.90;61.40;;;;;;5012686;28;20095;-51
2023/03/02 10:40:58;;;;;;;11.18;6.65;;;12.40;61.50;;;;;;5012833;28;20041;-52
2023/03/02 10:43:41;;;;;;;12.75;6.50;;;12.80;60.00;;;;;;5031936;28;20040;-52
2023/03/02 10:46:08;;;;;;;11.70;6.60;;;12.50;60.60;;;;;;5031874;28;20034;-50
2023/03/02 10:48:52;;;;;;;10.65;6.30;;;12.30;60.60;;;;;;5031567;28;20037;-52
2023/03/02 10:51:25;;;;;;;13.25;6.53;;;12.50;60.50;;;;;;5031301;28;20500;-51
2023/03/02 10:54:06;;;;;;;13.05;6.93;;;12.80;59.90;;;;;;5031117;28;20040;-53
2023/03/02 10:56:33;;;;;;;11.55;6.95;;;12.20;59.70;;;;;;5030689;28;20370;-49
2023/03/02 10:59:02;;;;;;;10.85;6.55;;;12.10;60.80;;;;;;5031456;28;20262;-50
2023/03/02 11:01:30;;;;;;;13.15;6.57;;;12.00;61.50;;;;;;5031642;28;20036;-50
2023/03/02 11:03:58;;;;;;;14.45;6.82;;;11.90;61.80;;;;;;5031334;28;20433;-54
2023/03/02 11:06:24;;;;;;;12.10;6.70;;;12.40;60.80;;;;;;5032638;28;20037;-50
2023/03/02 11:09:02;;;;;;;11.45;6.65;;;12.50;60.00;;;;;;5031932;28;20036;-52
2023/03/02 11:11:28;;;;;;;12.45;6.38;;;12.30;60.50;;;;;;5032902;28;20033;-51
2023/03/02 11:13:55;;;;;;;15.85;6.35;;;12.30;59.50;;;;;;5032752;28;20601;-53
2023/03/02 11:16:29;;;;;;;11.10;5.80;;;12.30;59.20;;;;;;5032472;28;20029;-52
2023/03/02 11:19:04;;;;;;;9.88;6.35;;;12.30;60.50;;;;;;5032617;28;20116;-49
2023/03/02 11:21:45;;;;;;;10.45;5.38;;;12.90;58.90;;;;;;5032513;28;20033;-49
2023/03/02 11:24:15;;;;;;;12.68;6.90;;;13.50;58.50;;;;;;5032366;28;20022;-54
2023/03/02 11:26:53;;;;;;;18.05;6.38;;;13.50;57.70;;;;;;5032319;28;20033;-53
2023/03/02 11:29:22;;;;;;;13.50;7.28;;;13.80;57.70;;;;;;5032487;28;20099;-54
2023/03/02 11:31:57;;;;;;;10.38;6.38;;;13.70;57.00;;;;;;5031953;28;20033;-51
2023/03/02 11:34:47;;;;;;;10.43;6.13;;;13.10;57.60;;;;;;5032304;28;20052;-49
2023/03/02 11:37:21;;;;;;;11.20;6.55;;;12.60;58.20;;;;;;5032370;28;20040;-50
2023/03/02 11:39:55;;;;;;;10.27;6.00;;;12.30;58.90;;;;;;5032808;28;20029;-51
2023/03/02 11:42:36;;;;;;;10.63;6.10;;;12.90;58.60;;;;;;5032479;28;20052;-50
2023/03/02 11:45:11;;;;;;;10.15;6.13;;;12.90;57.20;;;;;;5032761;28;20040;-50
2023/03/02 11:47:38;;;;;;;12.10;6.10;;;12.70;57.20;;;;;;5032175;28;20473;-52
2023/03/02 11:50:05;;;;;;;10.32;5.90;;;13.00;57.10;;;;;;5032358;28;20429;-52
2023/03/02 11:52:36;;;;;;;10.52;6.20;;;12.70;59.20;;;;;;5014691;28;20409;-53
2023/03/02 11:55:11;;;;;;;11.57;6.25;;;12.30;58.40;;;;;;5032008;28;20044;-49
2023/03/02 11:57:48;;;;;;;12.70;7.15;;;12.40;59.20;;;;;;5031805;28;20030;-53
2023/03/02 12:00:34;;;;;;;11.05;6.35;;;12.30;59.80;;;;;;5014223;28;20485;-52
2023/03/02 12:03:21;;;;;;;10.60;6.75;;;12.90;59.40;;;;;;5031657;28;20037;-55
2023/03/02 12:05:52;;;;;;;10.48;6.05;;;13.40;58.30;;;;;;5031895;28;20037;-52
2023/03/02 12:08:18;;;;;;;13.05;6.18;;;13.80;56.80;;;;;;5031511;28;20040;-53
2023/03/02 12:11:00;;;;;;;13.55;6.80;;;14.00;56.40;;;;;;5032011;28;20037;-55
2023/03/02 12:13:33;;;;;;;10.18;6.57;;;14.50;55.80;;;;;;5031523;28;20041;-51
2023/03/02 12:15:59;;;;;;;12.45;6.03;;;14.60;55.20;;;;;;5031723;28;20037;-53
2023/03/02 12:18:39;;;;;;;10.65;6.55;;;15.10;53.40;;;;;;5031373;28;20417;-52
2023/03/02 12:21:15;;;;;;;10.63;5.85;;;15.50;53.20;;;;;;5031566;28;20076;-54
2023/03/02 12:23:55;;;;;;;11.98;6.50;;;15.40;52.90;;;;;;5031606;28;20025;-53
2023/03/02 12:26:20;;;;;;;11.80;5.95;;;14.80;55.00;;;;;;5031272;28;20035;-54
2023/03/02 12:29:10;;;;;;;10.88;5.93;;;14.60;54.20;;;;;;5031495;28;20025;-54
2023/03/02 12:31:42;;;;;;;9.43;5.43;;;14.40;54.40;;;;;;5031261;28;20037;-50
2023/03/02 12:34:23;;;;;;;10.77;6.03;;;14.20;54.90;;;;;;5031212;28;20386;-53
2023/03/02 12:36:59;;;;;;;9.65;6.13;;;14.50;55.30;;;;;;5031126;28;20044;-56
2023/03/02 12:39:43;;;;;;;11.57;6.10;;;14.70;54.40;;;;;;5031061;28;20088;-50
2023/03/02 12:42:47;;;;;;;9.30;6.07;;;14.50;54.50;;;;;;5031143;28;20069;-53
2023/03/02 12:45:51;;;;;;;9.45;5.80;;;15.00;53.60;;;;;;5030284;28;20037;-50
2023/03/02 12:48:47;;;;;;;10.75;5.70;;;15.00;52.70;;;;;;5030882;28;20052;-54
2023/03/02 12:51:21;;;;;;;13.57;6.13;;;15.20;52.90;;;;;;5028107;28;20103;-53
2023/03/02 12:54:01;;;;;;;10.27;5.65;;;15.40;52.80;;;;;;5030849;28;20038;-53
2023/03/02 12:56:27;;;;;;;8.43;5.30;;;16.00;51.80;;;;;;5030847;28;20033;-54
2023/03/02 12:58:53;;;;;;;10.50;5.70;;;15.80;51.40;;;;;;5030904;28;20037;-53
2023/03/02 13:01:25;;;;;;;11.10;6.25;;;15.90;53.00;;;;;;5030845;28;20053;-54